KDAG/DAG METAR and TAF weather

Enter ICAO airport designator
Station Type Date Time Source
KDAG METAR 2021/06/24 06:50 UTC NOAA

KDAG 240650Z AUTO 29005KT 10SM OVC110 23/17 A2995 RMK AO2 SLP118 T02330167


Station Type Date Time Source
KDAG Decoded METAR 2021/06/24 06:50 UTC NOAA

BARSTOW-DAGGETT AIRPORT, CA, United States (KDAG) 34-51N 116-47W 587M
Jun 24, 2021 - 02:50 AM EDT / 2021.06.24 0650 UTC
Wind: from the WNW (290 degrees) at 6 MPH (5 KT):0
Visibility: 10 mile(s):0
Sky conditions: overcast
Temperature: 73.9 F (23.3 C)
Dew Point: 62.1 F (16.7 C)
Relative Humidity: 66%
Pressure (altimeter): 29.95 in. Hg (1014 hPa)
ob: KDAG 240650Z AUTO 29005KT 10SM OVC110 23/17 A2995 RMK AO2 SLP118 T02330167
cycle: 7

Station Type Date Time Source
KDAG TAF 2021/06/24 06:22 UTC NOAA

TAF KDAG 240520Z 2406/2506 VRB05KT P6SM VCTS BKN100CB
FM240800 27008KT P6SM SCT100
FM241600 31007KT P6SM FEW100
FM242200 26015G25KT P6SM SKC

Example: see airport list